Terminal Aerodrome Forecast
Issued by NWS

Home | Current Version | Previous Version | Text Only | Print | Product List | Glossary On
Versions: 1 2 3 4 5 6 7 8 9 10 11 12 13 14 15 16 17 18 19 20 21 22 23 24 25 26 27 28
000
FTUS46 KSEW 201320 AAA
TAFSEA
TAF AMD
KSEA 201320Z 2013/2118 19011KT P6SM SCT013 BKN030 OVC100
      TEMPO 2013/2016 -SHRA BKN013 OVC030
     FM201600 19011KT P6SM VCSH SCT015 OVC025
     FM210000 16009KT P6SM -RA BKN035 OVC050
     FM211000 15012KT P6SM -RA BKN035 OVC050 WS020/18045KT=

USA.gov is the U.S. government's official web portal to all federal, state and local government web resources and services.